sensor_id;sensor_type;location;lat;lon;timestamp;P1;durP1;ratioP1;P2;durP2;ratioP2
67442;SDS011;54311;51.726;5.154;2022-11-02T00:00:29;13.45;;;3.75;;
67442;SDS011;54311;51.726;5.154;2022-11-02T00:02:55;9.32;;;3.22;;
67442;SDS011;54311;51.726;5.154;2022-11-02T00:05:20;14.30;;;3.95;;
67442;SDS011;54311;51.726;5.154;2022-11-02T00:07:52;13.43;;;3.95;;
67442;SDS011;54311;51.726;5.154;2022-11-02T00:10:18;14.85;;;3.55;;
67442;SDS011;54311;51.726;5.154;2022-11-02T00:12:44;12.68;;;3.78;;
67442;SDS011;54311;51.726;5.154;2022-11-02T00:15:10;13.20;;;3.83;;
67442;SDS011;54311;51.726;5.154;2022-11-02T00:17:35;8.98;;;3.40;;
67442;SDS011;54311;51.726;5.154;2022-11-02T00:20:04;12.27;;;3.75;;
67442;SDS011;54311;51.726;5.154;2022-11-02T00:22:30;13.32;;;4.43;;
67442;SDS011;54311;51.726;5.154;2022-11-02T00:24:57;11.55;;;4.25;;
67442;SDS011;54311;51.726;5.154;2022-11-02T00:27:23;15.00;;;3.50;;
67442;SDS011;54311;51.726;5.154;2022-11-02T00:29:48;11.60;;;3.53;;
67442;SDS011;54311;51.726;5.154;2022-11-02T00:32:15;8.10;;;3.28;;
67442;SDS011;54311;51.726;5.154;2022-11-02T00:34:40;10.70;;;3.38;;
67442;SDS011;54311;51.726;5.154;2022-11-02T00:37:06;9.95;;;3.97;;
67442;SDS011;54311;51.726;5.154;2022-11-02T00:39:31;15.10;;;4.07;;
67442;SDS011;54311;51.726;5.154;2022-11-02T00:41:56;7.22;;;3.20;;
67442;SDS011;54311;51.726;5.154;2022-11-02T00:44:22;7.88;;;3.13;;
67442;SDS011;54311;51.726;5.154;2022-11-02T00:46:47;5.47;;;3.25;;
67442;SDS011;54311;51.726;5.154;2022-11-02T00:49:12;12.60;;;3.47;;
67442;SDS011;54311;51.726;5.154;2022-11-02T00:51:38;9.80;;;3.08;;
67442;SDS011;54311;51.726;5.154;2022-11-02T00:54:03;13.52;;;3.30;;
67442;SDS011;54311;51.726;5.154;2022-11-02T00:56:28;12.23;;;3.85;;
67442;SDS011;54311;51.726;5.154;2022-11-02T00:58:54;9.27;;;3.47;;
67442;SDS011;54311;51.726;5.154;2022-11-02T01:01:19;11.80;;;4.10;;
67442;SDS011;54311;51.726;5.154;2022-11-02T01:03:44;17.13;;;4.13;;
67442;SDS011;54311;51.726;5.154;2022-11-02T01:06:13;11.38;;;3.72;;
67442;SDS011;54311;51.726;5.154;2022-11-02T01:08:39;17.38;;;4.25;;
67442;SDS011;54311;51.726;5.154;2022-11-02T01:11:12;12.88;;;3.92;;
67442;SDS011;54311;51.726;5.154;2022-11-02T01:13:38;11.18;;;3.72;;
67442;SDS011;54311;51.726;5.154;2022-11-02T01:16:04;7.50;;;2.80;;
67442;SDS011;54311;51.726;5.154;2022-11-02T01:18:30;3.38;;;2.47;;
67442;SDS011;54311;51.726;5.154;2022-11-02T01:20:56;6.55;;;2.72;;
67442;SDS011;54311;51.726;5.154;2022-11-02T01:23:21;7.95;;;2.47;;
67442;SDS011;54311;51.726;5.154;2022-11-02T01:25:47;4.13;;;2.00;;
67442;SDS011;54311;51.726;5.154;2022-11-02T01:28:12;3.72;;;2.20;;
67442;SDS011;54311;51.726;5.154;2022-11-02T01:30:37;10.57;;;3.17;;
67442;SDS011;54311;51.726;5.154;2022-11-02T01:33:06;7.15;;;2.45;;
67442;SDS011;54311;51.726;5.154;2022-11-02T01:35:31;3.80;;;2.30;;
67442;SDS011;54311;51.726;5.154;2022-11-02T01:37:56;6.30;;;2.75;;
67442;SDS011;54311;51.726;5.154;2022-11-02T01:40:22;6.68;;;2.80;;
67442;SDS011;54311;51.726;5.154;2022-11-02T01:42:47;5.28;;;3.08;;
67442;SDS011;54311;51.726;5.154;2022-11-02T01:45:13;7.40;;;2.72;;
67442;SDS011;54311;51.726;5.154;2022-11-02T01:47:39;8.43;;;2.50;;
67442;SDS011;54311;51.726;5.154;2022-11-02T01:50:08;14.52;;;3.42;;
67442;SDS011;54311;51.726;5.154;2022-11-02T01:52:36;2.88;;;2.63;;
67442;SDS011;54311;51.726;5.154;2022-11-02T01:55:08;10.27;;;2.75;;
67442;SDS011;54311;51.726;5.154;2022-11-02T01:57:36;6.63;;;2.50;;
67442;SDS011;54311;51.726;5.154;2022-11-02T02:00:07;9.85;;;3.10;;
67442;SDS011;54311;51.726;5.154;2022-11-02T02:02:34;10.15;;;2.70;;
67442;SDS011;54311;51.726;5.154;2022-11-02T02:05:04;6.30;;;2.60;;
67442;SDS011;54311;51.726;5.154;2022-11-02T02:07:31;5.30;;;2.50;;
67442;SDS011;54311;51.726;5.154;2022-11-02T02:09:57;11.13;;;3.45;;
67442;SDS011;54311;51.726;5.154;2022-11-02T02:12:23;9.55;;;3.28;;
67442;SDS011;54311;51.726;5.154;2022-11-02T02:14:49;5.88;;;3.58;;
67442;SDS011;54311;51.726;5.154;2022-11-02T02:28:18;10.77;;;3.25;;
67442;SDS011;54311;51.726;5.154;2022-11-02T02:30:50;6.43;;;3.10;;
67442;SDS011;54311;51.726;5.154;2022-11-02T02:33:24;12.15;;;3.60;;
67442;SDS011;54311;51.726;5.154;2022-11-02T02:36:03;10.25;;;3.60;;
67442;SDS011;54311;51.726;5.154;2022-11-02T02:38:44;13.52;;;3.55;;
67442;SDS011;54311;51.726;5.154;2022-11-02T02:43:55;12.80;;;3.78;;
67442;SDS011;54311;51.726;5.154;2022-11-02T02:46:26;12.82;;;3.35;;
67442;SDS011;54311;51.726;5.154;2022-11-02T02:48:56;14.75;;;3.67;;
67442;SDS011;54311;51.726;5.154;2022-11-02T02:51:27;12.43;;;3.58;;
67442;SDS011;54311;51.726;5.154;2022-11-02T02:54:01;13.57;;;4.38;;
67442;SDS011;54311;51.726;5.154;2022-11-02T02:56:29;16.52;;;3.67;;
67442;SDS011;54311;51.726;5.154;2022-11-02T02:59:02;7.10;;;3.28;;
67442;SDS011;54311;51.726;5.154;2022-11-02T03:01:29;11.55;;;3.63;;
67442;SDS011;54311;51.726;5.154;2022-11-02T03:03:56;9.98;;;4.10;;
67442;SDS011;54311;51.726;5.154;2022-11-02T03:06:22;13.48;;;3.83;;
67442;SDS011;54311;51.726;5.154;2022-11-02T03:14:42;17.52;;;3.88;;
67442;SDS011;54311;51.726;5.154;2022-11-02T03:17:23;12.02;;;3.95;;
67442;SDS011;54311;51.726;5.154;2022-11-02T03:30:22;12.10;;;4.03;;
67442;SDS011;54311;51.726;5.154;2022-11-02T03:32:55;14.20;;;3.88;;
67442;SDS011;54311;51.726;5.154;2022-11-02T03:35:34;14.65;;;4.10;;
67442;SDS011;54311;51.726;5.154;2022-11-02T03:40:56;17.63;;;4.57;;
67442;SDS011;54311;51.726;5.154;2022-11-02T03:43:22;14.57;;;4.28;;
67442;SDS011;54311;51.726;5.154;2022-11-02T03:45:56;21.13;;;4.75;;
67442;SDS011;54311;51.726;5.154;2022-11-02T03:48:24;18.45;;;5.22;;
67442;SDS011;54311;51.726;5.154;2022-11-02T03:50:53;13.75;;;4.15;;
67442;SDS011;54311;51.726;5.154;2022-11-02T03:53:33;15.40;;;4.43;;
67442;SDS011;54311;51.726;5.154;2022-11-02T03:56:03;15.30;;;3.88;;
67442;SDS011;54311;51.726;5.154;2022-11-02T03:58:31;17.55;;;4.22;;
67442;SDS011;54311;51.726;5.154;2022-11-02T04:00:57;14.30;;;4.13;;
67442;SDS011;54311;51.726;5.154;2022-11-02T04:03:24;11.68;;;4.10;;
67442;SDS011;54311;51.726;5.154;2022-11-02T04:05:50;20.13;;;4.65;;
67442;SDS011;54311;51.726;5.154;2022-11-02T04:08:21;17.23;;;4.35;;
67442;SDS011;54311;51.726;5.154;2022-11-02T04:10:53;15.88;;;4.82;;
67442;SDS011;54311;51.726;5.154;2022-11-02T04:13:37;18.75;;;4.32;;
67442;SDS011;54311;51.726;5.154;2022-11-02T04:16:21;17.88;;;4.57;;
67442;SDS011;54311;51.726;5.154;2022-11-02T04:18:46;18.55;;;4.03;;
67442;SDS011;54311;51.726;5.154;2022-11-02T04:21:30;19.10;;;5.90;;
67442;SDS011;54311;51.726;5.154;2022-11-02T04:23:56;15.00;;;5.30;;
67442;SDS011;54311;51.726;5.154;2022-11-02T04:26:40;12.75;;;4.05;;
67442;SDS011;54311;51.726;5.154;2022-11-02T04:29:05;15.30;;;4.78;;
67442;SDS011;54311;51.726;5.154;2022-11-02T04:31:32;12.52;;;3.50;;
67442;SDS011;54311;51.726;5.154;2022-11-02T04:33:57;17.60;;;4.88;;
67442;SDS011;54311;51.726;5.154;2022-11-02T04:36:23;16.13;;;4.60;;
67442;SDS011;54311;51.726;5.154;2022-11-02T04:38:49;18.50;;;4.32;;
67442;SDS011;54311;51.726;5.154;2022-11-02T04:41:16;19.77;;;4.03;;
67442;SDS011;54311;51.726;5.154;2022-11-02T04:44:18;15.88;;;4.60;;
67442;SDS011;54311;51.726;5.154;2022-11-02T04:46:43;22.73;;;4.72;;
67442;SDS011;54311;51.726;5.154;2022-11-02T04:49:09;14.88;;;4.82;;
67442;SDS011;54311;51.726;5.154;2022-11-02T04:51:35;16.17;;;4.55;;
67442;SDS011;54311;51.726;5.154;2022-11-02T04:54:00;25.77;;;5.30;;
67442;SDS011;54311;51.726;5.154;2022-11-02T04:56:27;13.63;;;3.90;;
67442;SDS011;54311;51.726;5.154;2022-11-02T04:58:53;19.15;;;4.38;;
67442;SDS011;54311;51.726;5.154;2022-11-02T05:01:20;21.33;;;5.35;;
67442;SDS011;54311;51.726;5.154;2022-11-02T05:03:47;16.27;;;4.43;;
67442;SDS011;54311;51.726;5.154;2022-11-02T05:06:13;22.63;;;4.40;;
67442;SDS011;54311;51.726;5.154;2022-11-02T05:08:39;17.90;;;4.60;;
67442;SDS011;54311;51.726;5.154;2022-11-02T05:11:05;21.15;;;4.18;;
67442;SDS011;54311;51.726;5.154;2022-11-02T05:13:30;17.63;;;4.90;;
67442;SDS011;54311;51.726;5.154;2022-11-02T05:15:56;15.57;;;4.35;;
67442;SDS011;54311;51.726;5.154;2022-11-02T05:18:22;17.55;;;4.93;;
67442;SDS011;54311;51.726;5.154;2022-11-02T05:20:49;15.57;;;4.35;;
67442;SDS011;54311;51.726;5.154;2022-11-02T05:23:16;18.65;;;4.40;;
67442;SDS011;54311;51.726;5.154;2022-11-02T05:25:42;19.83;;;4.55;;
67442;SDS011;54311;51.726;5.154;2022-11-02T05:28:07;13.88;;;3.83;;
67442;SDS011;54311;51.726;5.154;2022-11-02T05:30:32;10.68;;;4.18;;
67442;SDS011;54311;51.726;5.154;2022-11-02T05:32:58;18.05;;;4.78;;
67442;SDS011;54311;51.726;5.154;2022-11-02T05:35:23;23.55;;;5.00;;
67442;SDS011;54311;51.726;5.154;2022-11-02T05:37:48;16.75;;;4.43;;
67442;SDS011;54311;51.726;5.154;2022-11-02T05:40:14;16.02;;;4.63;;
67442;SDS011;54311;51.726;5.154;2022-11-02T05:42:39;17.48;;;4.47;;
67442;SDS011;54311;51.726;5.154;2022-11-02T05:45:05;13.63;;;4.28;;
67442;SDS011;54311;51.726;5.154;2022-11-02T05:47:32;24.30;;;4.43;;
67442;SDS011;54311;51.726;5.154;2022-11-02T05:49:57;11.20;;;3.95;;
67442;SDS011;54311;51.726;5.154;2022-11-02T05:52:23;20.35;;;4.13;;
67442;SDS011;54311;51.726;5.154;2022-11-02T05:54:48;13.18;;;3.33;;
67442;SDS011;54311;51.726;5.154;2022-11-02T05:57:13;16.10;;;4.38;;
67442;SDS011;54311;51.726;5.154;2022-11-02T05:59:41;12.93;;;3.60;;
67442;SDS011;54311;51.726;5.154;2022-11-02T06:02:06;15.52;;;3.85;;
67442;SDS011;54311;51.726;5.154;2022-11-02T06:04:31;19.05;;;4.75;;
67442;SDS011;54311;51.726;5.154;2022-11-02T06:06:56;10.35;;;4.32;;
67442;SDS011;54311;51.726;5.154;2022-11-02T06:09:22;11.13;;;3.90;;
67442;SDS011;54311;51.726;5.154;2022-11-02T06:11:47;18.08;;;4.47;;
67442;SDS011;54311;51.726;5.154;2022-11-02T06:14:13;17.67;;;3.72;;
67442;SDS011;54311;51.726;5.154;2022-11-02T06:16:38;16.63;;;4.70;;
67442;SDS011;54311;51.726;5.154;2022-11-02T06:19:03;15.32;;;5.22;;
67442;SDS011;54311;51.726;5.154;2022-11-02T06:21:29;14.07;;;3.50;;
67442;SDS011;54311;51.726;5.154;2022-11-02T06:23:54;17.27;;;5.10;;
67442;SDS011;54311;51.726;5.154;2022-11-02T06:26:19;15.82;;;3.83;;
67442;SDS011;54311;51.726;5.154;2022-11-02T06:28:45;14.10;;;4.07;;
67442;SDS011;54311;51.726;5.154;2022-11-02T06:31:10;15.13;;;4.22;;
67442;SDS011;54311;51.726;5.154;2022-11-02T06:33:36;21.77;;;3.78;;
67442;SDS011;54311;51.726;5.154;2022-11-02T06:36:01;13.40;;;3.67;;
67442;SDS011;54311;51.726;5.154;2022-11-02T06:38:27;15.02;;;3.75;;
67442;SDS011;54311;51.726;5.154;2022-11-02T06:40:59;19.63;;;4.55;;
67442;SDS011;54311;51.726;5.154;2022-11-02T06:43:30;15.85;;;4.00;;
67442;SDS011;54311;51.726;5.154;2022-11-02T06:45:56;11.35;;;3.65;;
67442;SDS011;54311;51.726;5.154;2022-11-02T06:48:23;12.75;;;4.00;;
67442;SDS011;54311;51.726;5.154;2022-11-02T06:50:49;9.55;;;3.95;;
67442;SDS011;54311;51.726;5.154;2022-11-02T06:53:15;14.10;;;4.13;;
67442;SDS011;54311;51.726;5.154;2022-11-02T06:55:40;13.95;;;4.22;;
67442;SDS011;54311;51.726;5.154;2022-11-02T06:58:05;13.52;;;4.13;;
67442;SDS011;54311;51.726;5.154;2022-11-02T07:00:31;12.32;;;3.47;;
67442;SDS011;54311;51.726;5.154;2022-11-02T07:03:00;17.23;;;3.88;;
67442;SDS011;54311;51.726;5.154;2022-11-02T07:05:31;12.88;;;3.97;;
67442;SDS011;54311;51.726;5.154;2022-11-02T07:07:57;12.68;;;4.00;;
67442;SDS011;54311;51.726;5.154;2022-11-02T07:10:22;13.20;;;3.88;;
67442;SDS011;54311;51.726;5.154;2022-11-02T07:12:55;14.80;;;4.50;;
67442;SDS011;54311;51.726;5.154;2022-11-02T07:15:21;13.25;;;3.88;;
67442;SDS011;54311;51.726;5.154;2022-11-02T07:17:47;13.63;;;4.35;;
67442;SDS011;54311;51.726;5.154;2022-11-02T07:20:13;15.82;;;4.28;;
67442;SDS011;54311;51.726;5.154;2022-11-02T07:22:39;14.23;;;3.80;;
67442;SDS011;54311;51.726;5.154;2022-11-02T07:25:04;14.25;;;3.75;;
67442;SDS011;54311;51.726;5.154;2022-11-02T07:27:30;11.40;;;4.18;;
67442;SDS011;54311;51.726;5.154;2022-11-02T07:29:56;13.38;;;4.25;;
67442;SDS011;54311;51.726;5.154;2022-11-02T07:32:22;12.48;;;4.32;;
67442;SDS011;54311;51.726;5.154;2022-11-02T07:34:47;18.95;;;4.10;;
67442;SDS011;54311;51.726;5.154;2022-11-02T07:37:13;14.23;;;4.28;;
67442;SDS011;54311;51.726;5.154;2022-11-02T07:39:38;19.98;;;4.28;;
67442;SDS011;54311;51.726;5.154;2022-11-02T07:42:03;16.05;;;4.60;;
67442;SDS011;54311;51.726;5.154;2022-11-02T07:44:30;14.52;;;3.78;;
67442;SDS011;54311;51.726;5.154;2022-11-02T07:46:56;13.43;;;3.63;;
67442;SDS011;54311;51.726;5.154;2022-11-02T07:49:21;10.95;;;3.97;;
67442;SDS011;54311;51.726;5.154;2022-11-02T07:51:47;14.02;;;4.45;;
67442;SDS011;54311;51.726;5.154;2022-11-02T07:54:12;9.55;;;4.03;;
67442;SDS011;54311;51.726;5.154;2022-11-02T07:56:37;22.90;;;4.63;;
67442;SDS011;54311;51.726;5.154;2022-11-02T07:59:03;16.70;;;3.85;;
67442;SDS011;54311;51.726;5.154;2022-11-02T08:01:28;16.35;;;4.07;;
67442;SDS011;54311;51.726;5.154;2022-11-02T08:03:53;21.00;;;5.10;;
67442;SDS011;54311;51.726;5.154;2022-11-02T08:06:20;15.23;;;4.53;;
67442;SDS011;54311;51.726;5.154;2022-11-02T08:08:45;16.15;;;4.30;;
67442;SDS011;54311;51.726;5.154;2022-11-02T08:11:11;16.58;;;5.03;;
67442;SDS011;54311;51.726;5.154;2022-11-02T08:13:36;22.35;;;5.72;;
67442;SDS011;54311;51.726;5.154;2022-11-02T08:16:02;15.05;;;4.50;;
67442;SDS011;54311;51.726;5.154;2022-11-02T08:18:28;19.67;;;4.30;;
67442;SDS011;54311;51.726;5.154;2022-11-02T08:20:54;16.85;;;4.07;;
67442;SDS011;54311;51.726;5.154;2022-11-02T08:23:20;20.02;;;5.35;;
67442;SDS011;54311;51.726;5.154;2022-11-02T08:25:46;16.30;;;4.82;;
67442;SDS011;54311;51.726;5.154;2022-11-02T08:28:17;17.60;;;4.97;;
67442;SDS011;54311;51.726;5.154;2022-11-02T08:30:48;23.73;;;5.30;;
67442;SDS011;54311;51.726;5.154;2022-11-02T08:33:14;17.33;;;5.00;;
67442;SDS011;54311;51.726;5.154;2022-11-02T08:35:41;19.58;;;4.65;;
67442;SDS011;54311;51.726;5.154;2022-11-02T08:38:08;16.83;;;4.30;;
67442;SDS011;54311;51.726;5.154;2022-11-02T08:40:34;14.90;;;4.60;;
67442;SDS011;54311;51.726;5.154;2022-11-02T08:43:01;16.40;;;4.50;;
67442;SDS011;54311;51.726;5.154;2022-11-02T08:45:28;18.50;;;4.70;;
67442;SDS011;54311;51.726;5.154;2022-11-02T08:47:54;20.48;;;4.72;;
67442;SDS011;54311;51.726;5.154;2022-11-02T08:50:19;18.13;;;4.47;;
67442;SDS011;54311;51.726;5.154;2022-11-02T08:52:45;12.82;;;4.55;;
67442;SDS011;54311;51.726;5.154;2022-11-02T08:55:11;21.17;;;4.93;;
67442;SDS011;54311;51.726;5.154;2022-11-02T08:57:46;17.77;;;4.10;;
67442;SDS011;54311;51.726;5.154;2022-11-02T09:00:12;11.57;;;4.25;;
67442;SDS011;54311;51.726;5.154;2022-11-02T09:02:38;19.00;;;4.47;;
67442;SDS011;54311;51.726;5.154;2022-11-02T09:05:03;23.10;;;4.47;;
67442;SDS011;54311;51.726;5.154;2022-11-02T09:07:29;16.00;;;4.50;;
67442;SDS011;54311;51.726;5.154;2022-11-02T09:09:54;13.15;;;4.07;;
67442;SDS011;54311;51.726;5.154;2022-11-02T09:12:20;19.38;;;5.32;;
67442;SDS011;54311;51.726;5.154;2022-11-02T09:14:45;20.17;;;4.72;;
67442;SDS011;54311;51.726;5.154;2022-11-02T09:17:11;16.60;;;4.53;;
67442;SDS011;54311;51.726;5.154;2022-11-02T09:19:36;15.35;;;3.95;;
67442;SDS011;54311;51.726;5.154;2022-11-02T09:22:01;14.90;;;4.80;;
67442;SDS011;54311;51.726;5.154;2022-11-02T09:24:27;14.77;;;4.07;;
67442;SDS011;54311;51.726;5.154;2022-11-02T09:26:52;20.23;;;5.00;;
67442;SDS011;54311;51.726;5.154;2022-11-02T09:29:17;17.83;;;4.38;;
67442;SDS011;54311;51.726;5.154;2022-11-02T09:31:43;13.65;;;4.45;;
67442;SDS011;54311;51.726;5.154;2022-11-02T09:34:08;17.92;;;4.50;;
67442;SDS011;54311;51.726;5.154;2022-11-02T09:36:33;20.83;;;4.43;;
67442;SDS011;54311;51.726;5.154;2022-11-02T09:38:59;22.20;;;5.07;;
67442;SDS011;54311;51.726;5.154;2022-11-02T09:41:58;19.42;;;5.28;;
67442;SDS011;54311;51.726;5.154;2022-11-02T09:44:25;20.45;;;4.70;;
67442;SDS011;54311;51.726;5.154;2022-11-02T09:46:54;16.45;;;3.83;;
67442;SDS011;54311;51.726;5.154;2022-11-02T09:49:20;14.90;;;4.10;;
67442;SDS011;54311;51.726;5.154;2022-11-02T09:51:54;22.13;;;5.07;;
67442;SDS011;54311;51.726;5.154;2022-11-02T09:54:29;23.10;;;5.00;;
67442;SDS011;54311;51.726;5.154;2022-11-02T09:57:09;17.98;;;5.03;;
67442;SDS011;54311;51.726;5.154;2022-11-02T09:59:36;18.88;;;5.32;;
67442;SDS011;54311;51.726;5.154;2022-11-02T10:02:04;20.60;;;4.82;;
67442;SDS011;54311;51.726;5.154;2022-11-02T10:04:57;20.77;;;4.20;;
67442;SDS011;54311;51.726;5.154;2022-11-02T10:10:11;22.15;;;4.50;;
67442;SDS011;54311;51.726;5.154;2022-11-02T10:12:58;21.10;;;4.13;;
67442;SDS011;54311;51.726;5.154;2022-11-02T10:15:34;18.05;;;4.43;;
67442;SDS011;54311;51.726;5.154;2022-11-02T10:18:02;17.17;;;4.82;;
67442;SDS011;54311;51.726;5.154;2022-11-02T10:20:33;18.67;;;4.70;;
67442;SDS011;54311;51.726;5.154;2022-11-02T10:23:05;17.13;;;5.05;;
67442;SDS011;54311;51.726;5.154;2022-11-02T10:25:32;13.93;;;4.13;;
67442;SDS011;54311;51.726;5.154;2022-11-02T10:28:13;26.23;;;5.47;;
67442;SDS011;54311;51.726;5.154;2022-11-02T10:30:41;15.35;;;4.45;;
67442;SDS011;54311;51.726;5.154;2022-11-02T10:33:14;17.58;;;4.15;;
67442;SDS011;54311;51.726;5.154;2022-11-02T10:52:04;22.33;;;5.05;;
67442;SDS011;54311;51.726;5.154;2022-11-02T10:54:30;25.10;;;5.22;;
67442;SDS011;54311;51.726;5.154;2022-11-02T10:56:56;14.10;;;4.60;;
67442;SDS011;54311;51.726;5.154;2022-11-02T10:59:22;17.58;;;4.47;;
67442;SDS011;54311;51.726;5.154;2022-11-02T11:04:29;19.83;;;4.85;;
67442;SDS011;54311;51.726;5.154;2022-11-02T11:06:56;20.63;;;5.15;;
67442;SDS011;54311;51.726;5.154;2022-11-02T11:09:26;18.90;;;4.47;;
67442;SDS011;54311;51.726;5.154;2022-11-02T11:14:43;17.13;;;4.10;;
67442;SDS011;54311;51.726;5.154;2022-11-02T11:17:16;16.58;;;4.45;;
67442;SDS011;54311;51.726;5.154;2022-11-02T11:19:47;23.58;;;4.82;;
67442;SDS011;54311;51.726;5.154;2022-11-02T11:28:07;13.05;;;3.40;;
67442;SDS011;54311;51.726;5.154;2022-11-02T11:30:45;18.02;;;4.32;;
67442;SDS011;54311;51.726;5.154;2022-11-02T11:33:24;17.63;;;3.65;;
67442;SDS011;54311;51.726;5.154;2022-11-02T11:35:50;14.18;;;3.65;;
67442;SDS011;54311;51.726;5.154;2022-11-02T11:38:19;16.33;;;4.30;;
67442;SDS011;54311;51.726;5.154;2022-11-02T11:40:47;12.18;;;3.88;;
67442;SDS011;54311;51.726;5.154;2022-11-02T11:43:17;16.88;;;4.80;;
67442;SDS011;54311;51.726;5.154;2022-11-02T11:45:57;16.17;;;3.78;;
67442;SDS011;54311;51.726;5.154;2022-11-02T11:48:32;11.95;;;3.95;;
67442;SDS011;54311;51.726;5.154;2022-11-02T11:56:39;9.00;;;3.75;;
67442;SDS011;54311;51.726;5.154;2022-11-02T11:59:04;13.07;;;3.65;;
67442;SDS011;54311;51.726;5.154;2022-11-02T12:01:43;13.75;;;3.72;;
67442;SDS011;54311;51.726;5.154;2022-11-02T12:04:08;15.90;;;4.28;;
67442;SDS011;54311;51.726;5.154;2022-11-02T12:17:33;12.82;;;3.97;;
67442;SDS011;54311;51.726;5.154;2022-11-02T12:25:58;12.10;;;4.10;;
67442;SDS011;54311;51.726;5.154;2022-11-02T12:28:42;15.30;;;4.22;;
67442;SDS011;54311;51.726;5.154;2022-11-02T12:37:03;13.88;;;3.85;;
67442;SDS011;54311;51.726;5.154;2022-11-02T12:42:25;18.25;;;4.10;;
67442;SDS011;54311;51.726;5.154;2022-11-02T12:50:20;11.57;;;3.60;;
67442;SDS011;54311;51.726;5.154;2022-11-02T12:53:06;17.77;;;4.07;;
67442;SDS011;54311;51.726;5.154;2022-11-02T12:55:39;15.90;;;3.88;;
67442;SDS011;54311;51.726;5.154;2022-11-02T12:58:09;19.25;;;3.63;;
67442;SDS011;54311;51.726;5.154;2022-11-02T13:00:41;14.00;;;4.00;;
67442;SDS011;54311;51.726;5.154;2022-11-02T13:03:19;14.02;;;3.30;;
67442;SDS011;54311;51.726;5.154;2022-11-02T13:05:52;22.65;;;4.65;;
67442;SDS011;54311;51.726;5.154;2022-11-02T13:08:23;17.13;;;4.22;;
67442;SDS011;54311;51.726;5.154;2022-11-02T13:10:53;13.77;;;5.05;;
67442;SDS011;54311;51.726;5.154;2022-11-02T13:16:07;22.25;;;4.53;;
67442;SDS011;54311;51.726;5.154;2022-11-02T13:18:42;17.23;;;4.90;;
67442;SDS011;54311;51.726;5.154;2022-11-02T13:21:11;15.30;;;4.22;;
67442;SDS011;54311;51.726;5.154;2022-11-02T13:23:38;15.18;;;3.92;;
67442;SDS011;54311;51.726;5.154;2022-11-02T13:26:27;16.13;;;3.90;;
67442;SDS011;54311;51.726;5.154;2022-11-02T13:29:04;8.82;;;3.47;;
67442;SDS011;54311;51.726;5.154;2022-11-02T13:31:54;12.20;;;3.88;;
67442;SDS011;54311;51.726;5.154;2022-11-02T13:34:39;12.05;;;3.42;;
67442;SDS011;54311;51.726;5.154;2022-11-02T13:37:13;16.35;;;4.22;;
67442;SDS011;54311;51.726;5.154;2022-11-02T13:39:43;17.35;;;4.03;;
67442;SDS011;54311;51.726;5.154;2022-11-02T13:42:34;22.83;;;4.90;;
67442;SDS011;54311;51.726;5.154;2022-11-02T13:50:51;22.83;;;4.47;;
67442;SDS011;54311;51.726;5.154;2022-11-02T13:53:39;20.55;;;3.95;;
67442;SDS011;54311;51.726;5.154;2022-11-02T13:56:07;20.45;;;4.63;;
67442;SDS011;54311;51.726;5.154;2022-11-02T13:58:35;12.13;;;3.47;;
67442;SDS011;54311;51.726;5.154;2022-11-02T14:01:07;12.95;;;4.00;;
67442;SDS011;54311;51.726;5.154;2022-11-02T14:06:22;13.15;;;4.00;;
67442;SDS011;54311;51.726;5.154;2022-11-02T14:14:26;17.23;;;4.47;;
67442;SDS011;54311;51.726;5.154;2022-11-02T14:29:35;19.90;;;4.82;;
67442;SDS011;54311;51.726;5.154;2022-11-02T14:40:38;15.57;;;4.20;;
67442;SDS011;54311;51.726;5.154;2022-11-02T14:48:45;12.65;;;4.30;;
67442;SDS011;54311;51.726;5.154;2022-11-02T14:51:15;19.35;;;3.70;;
67442;SDS011;54311;51.726;5.154;2022-11-02T14:53:44;16.35;;;3.85;;
67442;SDS011;54311;51.726;5.154;2022-11-02T14:56:09;24.30;;;4.47;;
67442;SDS011;54311;51.726;5.154;2022-11-02T14:58:38;20.50;;;4.93;;
67442;SDS011;54311;51.726;5.154;2022-11-02T15:01:05;16.23;;;4.60;;
67442;SDS011;54311;51.726;5.154;2022-11-02T15:03:37;13.48;;;3.92;;
67442;SDS011;54311;51.726;5.154;2022-11-02T15:06:06;16.52;;;4.32;;
67442;SDS011;54311;51.726;5.154;2022-11-02T15:08:54;13.60;;;3.80;;
67442;SDS011;54311;51.726;5.154;2022-11-02T15:17:11;14.75;;;4.22;;
67442;SDS011;54311;51.726;5.154;2022-11-02T15:25:38;14.90;;;3.70;;
67442;SDS011;54311;51.726;5.154;2022-11-02T15:27:50;18.25;;;3.90;;
67442;SDS011;54311;51.726;5.154;2022-11-02T15:30:19;18.67;;;4.13;;
67442;SDS011;54311;51.726;5.154;2022-11-02T15:32:49;18.65;;;4.47;;
67442;SDS011;54311;51.726;5.154;2022-11-02T15:35:20;10.70;;;3.88;;
67442;SDS011;54311;51.726;5.154;2022-11-02T15:37:49;18.42;;;4.43;;
67442;SDS011;54311;51.726;5.154;2022-11-02T15:40:17;15.25;;;4.38;;
67442;SDS011;54311;51.726;5.154;2022-11-02T15:42:50;18.35;;;4.35;;
67442;SDS011;54311;51.726;5.154;2022-11-02T15:50:43;22.52;;;4.15;;
67442;SDS011;54311;51.726;5.154;2022-11-02T16:03:05;14.88;;;4.38;;
67442;SDS011;54311;51.726;5.154;2022-11-02T16:05:32;17.30;;;4.43;;
67442;SDS011;54311;51.726;5.154;2022-11-02T16:08:19;14.02;;;4.70;;
67442;SDS011;54311;51.726;5.154;2022-11-02T16:10:46;9.18;;;3.75;;
67442;SDS011;54311;51.726;5.154;2022-11-02T16:13:13;15.35;;;4.93;;
67442;SDS011;54311;51.726;5.154;2022-11-02T16:15:41;17.40;;;5.30;;
67442;SDS011;54311;51.726;5.154;2022-11-02T16:18:26;16.75;;;5.55;;
67442;SDS011;54311;51.726;5.154;2022-11-02T16:20:54;14.27;;;4.47;;
67442;SDS011;54311;51.726;5.154;2022-11-02T16:23:22;22.77;;;6.10;;
67442;SDS011;54311;51.726;5.154;2022-11-02T16:25:49;13.43;;;4.70;;
67442;SDS011;54311;51.726;5.154;2022-11-02T16:28:18;14.45;;;4.55;;
67442;SDS011;54311;51.726;5.154;2022-11-02T16:33:30;18.75;;;5.57;;
67442;SDS011;54311;51.726;5.154;2022-11-02T16:35:56;10.82;;;4.65;;
67442;SDS011;54311;51.726;5.154;2022-11-02T16:38:22;11.32;;;5.68;;
67442;SDS011;54311;51.726;5.154;2022-11-02T16:40:48;16.23;;;5.72;;
67442;SDS011;54311;51.726;5.154;2022-11-02T16:43:14;11.82;;;4.22;;
67442;SDS011;54311;51.726;5.154;2022-11-02T16:45:39;20.00;;;5.82;;
67442;SDS011;54311;51.726;5.154;2022-11-02T16:53:28;13.60;;;4.82;;
67442;SDS011;54311;51.726;5.154;2022-11-02T16:55:56;10.77;;;4.75;;
67442;SDS011;54311;51.726;5.154;2022-11-02T16:58:26;11.88;;;4.88;;
67442;SDS011;54311;51.726;5.154;2022-11-02T17:00:54;17.15;;;6.15;;
67442;SDS011;54311;51.726;5.154;2022-11-02T17:03:25;12.55;;;5.05;;
67442;SDS011;54311;51.726;5.154;2022-11-02T17:05:52;16.77;;;4.55;;
67442;SDS011;54311;51.726;5.154;2022-11-02T17:08:21;10.82;;;4.30;;
67442;SDS011;54311;51.726;5.154;2022-11-02T17:10:53;14.82;;;4.78;;
67442;SDS011;54311;51.726;5.154;2022-11-02T17:13:22;14.02;;;4.60;;
67442;SDS011;54311;51.726;5.154;2022-11-02T17:15:51;18.58;;;4.25;;
67442;SDS011;54311;51.726;5.154;2022-11-02T17:20:45;15.68;;;4.03;;
67442;SDS011;54311;51.726;5.154;2022-11-02T17:28:45;12.00;;;4.32;;
67442;SDS011;54311;51.726;5.154;2022-11-02T17:33:46;12.55;;;4.25;;
67442;SDS011;54311;51.726;5.154;2022-11-02T17:36:11;18.38;;;4.05;;
67442;SDS011;54311;51.726;5.154;2022-11-02T17:38:38;16.13;;;4.18;;
67442;SDS011;54311;51.726;5.154;2022-11-02T17:41:03;16.98;;;4.35;;
67442;SDS011;54311;51.726;5.154;2022-11-02T17:43:48;11.82;;;4.00;;
67442;SDS011;54311;51.726;5.154;2022-11-02T17:46:14;15.93;;;4.15;;
67442;SDS011;54311;51.726;5.154;2022-11-02T17:48:39;26.02;;;3.85;;
67442;SDS011;54311;51.726;5.154;2022-11-02T17:51:07;8.48;;;4.55;;
67442;SDS011;54311;51.726;5.154;2022-11-02T17:53:33;15.68;;;4.47;;